METAR Data
IDs: Format: Raw Decoded Include TAF

Data at: 1831 UTC 21 Nov 2018

METAR for:KLRD (Laredo Intl Apt, TX, US)
Text:KLRD 211756Z 01007KT 10SM OVC028 13/06 A3031 RMK AO2 SLP279 T01330061 10133 20128 58002
Temperature: 13.3°C ( 56°F)
Dewpoint: 6.1°C ( 43°F) [RH = 62%]
Pressure (altimeter):30.31 inches Hg (1026.5 mb) [Sea level pressure: 1027.9 mb]
Winds:from the N (10 degrees) at 8 MPH (7 knots; 3.6 m/s)
Visibility:10 or more sm (16+ km)
Ceiling:2800 feet AGL
Clouds: overcast cloud deck at 2800 feet AGL